Time;durP1;ratioP1;P1;durP2;ratioP2;P2;SDS_P1;SDS_P2;PMS_P1;PMS_P2;Temp;Humidity;BMP_temperature;BMP_pressure;BME280_temperature;BME280_humidity;BME280_pressure;Samples;Min_cycle;Max_cycle;Signal;HPM_P1;HPM_P2
2022/04/05 00:01:21;;;;;;;3.63;2.50;;;18.50;48.90;;;;;;5040724;28;88467;-74
2022/04/05 00:03:49;;;;;;;3.70;2.27;;;18.50;48.90;;;;;;5040467;27;88422;-75
2022/04/05 00:06:19;;;;;;;4.17;2.87;;;18.50;48.90;;;;;;5048929;27;89467;-74
2022/04/05 00:08:47;;;;;;;5.17;2.93;;;18.50;48.80;;;;;;5043978;27;88568;-74
2022/04/05 00:11:18;;;;;;;3.33;2.50;;;18.50;48.80;;;;;;5057138;27;89712;-74
2022/04/05 00:13:46;;;;;;;3.07;2.20;;;18.50;48.80;;;;;;5050766;27;90530;-74
2022/04/05 00:16:14;;;;;;;5.07;2.97;;;18.50;48.70;;;;;;5056892;27;89320;-74
2022/04/05 00:18:43;;;;;;;2.97;2.13;;;18.50;48.70;;;;;;5049657;27;91301;-74
2022/04/05 00:21:11;;;;;;;3.23;2.30;;;18.50;48.70;;;;;;5053140;27;88281;-74
2022/04/05 00:23:39;;;;;;;3.40;2.27;;;18.50;48.70;;;;;;5033402;27;89845;-74
2022/04/05 00:26:07;;;;;;;5.37;2.80;;;18.50;48.60;;;;;;5060958;27;89264;-74
2022/04/05 00:28:38;;;;;;;3.37;2.50;;;18.50;48.60;;;;;;5033507;27;88516;-73
2022/04/05 00:31:06;;;;;;;3.70;2.30;;;18.40;48.50;;;;;;5042401;28;88898;-74
2022/04/05 00:33:34;;;;;;;3.10;2.07;;;18.50;48.50;;;;;;5042818;28;90181;-74
2022/04/05 00:36:02;;;;;;;3.77;2.87;;;18.50;48.50;;;;;;5044585;27;92643;-73
2022/04/05 00:38:30;;;;;;;5.03;2.33;;;18.50;48.40;;;;;;5047692;27;88663;-74
2022/04/05 00:40:59;;;;;;;3.40;2.80;;;18.50;48.40;;;;;;5058807;27;88630;-74
2022/04/05 00:43:27;;;;;;;2.47;2.07;;;18.50;48.30;;;;;;5042253;28;90772;-74
2022/04/05 00:45:56;;;;;;;3.33;2.50;;;18.50;48.30;;;;;;5042738;27;90089;-74
2022/04/05 00:48:29;;;;;;;4.00;2.37;;;18.50;48.30;;;;;;5045180;27;89151;-75
2022/04/05 00:50:57;;;;;;;3.27;2.00;;;18.50;48.30;;;;;;5054653;27;88630;-74
2022/04/05 00:53:25;;;;;;;3.90;1.87;;;18.50;48.20;;;;;;5043099;27;88445;-74
2022/04/05 00:55:53;;;;;;;5.30;2.40;;;18.50;48.20;;;;;;5042246;27;90237;-74
2022/04/05 00:58:22;;;;;;;4.43;2.40;;;18.50;48.20;;;;;;5042684;27;88768;-74
2022/04/05 01:00:50;;;;;;;4.70;2.10;;;18.50;48.20;;;;;;5042694;28;88485;-74
2022/04/05 01:03:20;;;;;;;4.47;2.03;;;18.50;48.20;;;;;;5043210;27;88947;-74
2022/04/05 01:05:48;;;;;;;4.87;2.70;;;18.50;48.10;;;;;;5050726;27;89995;-74
2022/04/05 01:08:17;;;;;;;4.07;2.30;;;18.50;48.10;;;;;;5043625;27;89829;-74
2022/04/05 01:10:45;;;;;;;3.10;2.30;;;18.50;48.00;;;;;;5044980;27;88397;-74
2022/04/05 01:13:13;;;;;;;4.33;2.40;;;18.50;48.00;;;;;;5042136;27;90414;-74
2022/04/05 01:15:42;;;;;;;4.70;2.43;;;18.50;48.00;;;;;;5042246;27;90005;-74
2022/04/05 01:18:10;;;;;;;4.40;2.70;;;18.50;48.00;;;;;;5041805;27;88969;-73
2022/04/05 01:20:39;;;;;;;3.93;2.27;;;18.50;48.00;;;;;;5041877;27;88548;-72
2022/04/05 01:23:08;;;;;;;2.77;1.90;;;18.50;47.90;;;;;;5042179;28;90685;-74
2022/04/05 01:25:37;;;;;;;5.10;3.03;;;18.50;47.90;;;;;;5060167;27;89014;-72
2022/04/05 01:28:06;;;;;;;3.73;2.60;;;18.50;47.90;;;;;;5047590;27;88399;-73
2022/04/05 01:30:34;;;;;;;5.17;2.70;;;18.50;47.90;;;;;;5043752;27;88377;-73
2022/04/05 01:33:02;;;;;;;6.20;2.60;;;18.50;47.90;;;;;;5042204;28;91061;-73
2022/04/05 01:35:30;;;;;;;2.73;2.20;;;18.50;47.80;;;;;;5043071;27;90026;-73
2022/04/05 01:37:59;;;;;;;3.53;1.97;;;18.50;47.80;;;;;;5042438;27;88800;-74
2022/04/05 01:40:27;;;;;;;3.17;2.30;;;18.50;47.80;;;;;;5041995;28;88415;-74
2022/04/05 01:42:57;;;;;;;5.87;2.30;;;18.50;47.80;;;;;;5041332;27;91043;-73
2022/04/05 01:45:25;;;;;;;3.53;2.17;;;18.50;47.80;;;;;;5041830;27;89560;-73
2022/04/05 01:47:53;;;;;;;4.77;2.33;;;18.50;47.70;;;;;;5041235;28;91483;-74
2022/04/05 01:50:21;;;;;;;2.93;2.17;;;18.50;47.70;;;;;;5041615;27;88435;-74
2022/04/05 01:52:50;;;;;;;6.60;2.80;;;18.50;47.70;;;;;;5040577;27;89373;-73
2022/04/05 01:55:18;;;;;;;3.40;2.07;;;18.50;47.70;;;;;;5041375;27;89355;-73
2022/04/05 01:57:46;;;;;;;3.63;2.23;;;18.50;47.70;;;;;;5042132;27;91453;-73
2022/04/05 02:00:17;;;;;;;8.53;2.50;;;18.50;47.60;;;;;;5041840;27;88452;-74
2022/04/05 02:02:45;;;;;;;4.77;1.93;;;18.50;47.60;;;;;;5041527;28;92428;-72
2022/04/05 02:05:13;;;;;;;2.10;1.70;;;18.50;47.60;;;;;;5040917;28;90109;-73
2022/04/05 02:07:41;;;;;;;3.20;2.20;;;18.50;47.60;;;;;;5040697;27;88581;-73
2022/04/05 02:10:09;;;;;;;5.03;2.70;;;18.50;47.60;;;;;;5041794;28;88498;-74
2022/04/05 02:12:40;;;;;;;2.97;2.17;;;18.50;47.50;;;;;;5041368;28;93022;-73
2022/04/05 02:15:10;;;;;;;4.73;2.27;;;18.50;47.50;;;;;;5041109;27;90504;-74
2022/04/05 02:17:39;;;;;;;3.17;1.87;;;18.50;47.50;;;;;;5041869;28;88399;-74
2022/04/05 02:20:09;;;;;;;3.53;2.13;;;18.50;47.40;;;;;;5040309;28;88517;-73
2022/04/05 02:22:37;;;;;;;3.13;2.80;;;18.50;47.40;;;;;;5041301;28;89339;-74
2022/04/05 02:25:06;;;;;;;5.07;2.23;;;18.50;47.40;;;;;;5040971;27;90377;-74
2022/04/05 02:27:34;;;;;;;2.93;2.20;;;18.50;47.40;;;;;;5041204;28;88403;-74
2022/04/05 02:30:02;;;;;;;4.63;2.67;;;18.50;47.40;;;;;;5039040;27;88703;-74
2022/04/05 02:32:30;;;;;;;5.40;2.03;;;18.50;47.40;;;;;;5040649;28;90681;-74
2022/04/05 02:35:00;;;;;;;4.30;2.43;;;18.50;47.40;;;;;;5040200;28;90058;-74
2022/04/05 02:37:28;;;;;;;6.37;1.93;;;18.50;47.30;;;;;;5040870;28;88960;-73
2022/04/05 02:39:56;;;;;;;5.80;2.47;;;18.50;47.30;;;;;;5040604;28;89287;-74
2022/04/05 02:42:24;;;;;;;3.10;2.50;;;18.50;47.30;;;;;;5040930;28;90458;-74
2022/04/05 02:44:52;;;;;;;3.23;2.43;;;18.50;47.30;;;;;;5040617;28;88721;-73
2022/04/05 02:47:20;;;;;;;5.33;2.10;;;18.50;47.30;;;;;;5040111;28;89856;-73
2022/04/05 02:49:48;;;;;;;4.23;1.73;;;18.50;47.30;;;;;;5041239;28;88519;-73
2022/04/05 02:52:17;;;;;;;2.63;2.10;;;18.50;47.30;;;;;;5040228;27;91004;-73
2022/04/05 02:54:45;;;;;;;2.03;1.67;;;18.50;47.30;;;;;;5039738;28;90166;-73
2022/04/05 02:57:15;;;;;;;2.43;1.87;;;18.50;47.30;;;;;;5039745;28;88800;-73
2022/04/05 02:59:43;;;;;;;3.77;2.07;;;18.50;47.20;;;;;;5037074;27;88599;-73
2022/04/05 03:02:11;;;;;;;4.40;2.37;;;18.50;47.80;;;;;;5035575;28;89259;-74
2022/04/05 03:04:41;;;;;;;4.00;1.90;;;18.50;47.20;;;;;;5041080;28;92788;-73
2022/04/05 03:07:09;;;;;;;4.07;2.17;;;18.50;47.20;;;;;;5040822;27;88399;-73
2022/04/05 03:09:38;;;;;;;3.50;1.73;;;18.50;47.20;;;;;;5040870;28;88574;-74
2022/04/05 03:12:07;;;;;;;4.27;2.40;;;18.50;47.10;;;;;;5040986;28;90721;-74
2022/04/05 03:14:35;;;;;;;2.23;1.60;;;18.50;47.10;;;;;;5040707;27;89697;-74
2022/04/05 03:17:03;;;;;;;1.90;1.53;;;18.50;47.10;;;;;;5040851;28;90247;-73
2022/04/05 03:19:33;;;;;;;3.73;2.20;;;18.50;47.10;;;;;;5037323;27;88475;-73
2022/04/05 03:22:01;;;;;;;2.27;2.00;;;18.50;47.10;;;;;;5036125;28;92584;-74
2022/04/05 03:24:29;;;;;;;2.97;1.67;;;18.50;47.00;;;;;;5039197;27;91330;-73
2022/04/05 03:26:58;;;;;;;3.43;1.80;;;18.50;47.00;;;;;;5040488;27;88325;-73
2022/04/05 03:29:27;;;;;;;1.60;1.43;;;18.50;47.00;;;;;;5040590;27;88442;-74
2022/04/05 03:31:55;;;;;;;2.10;1.47;;;18.50;47.00;;;;;;5040369;27;89598;-73
2022/04/05 03:34:23;;;;;;;3.80;1.37;;;18.50;47.00;;;;;;5039353;27;89287;-74
2022/04/05 03:36:51;;;;;;;2.00;1.60;;;18.50;47.00;;;;;;5040424;27;88640;-74
2022/04/05 03:39:19;;;;;;;2.03;1.60;;;18.50;46.90;;;;;;5040174;28;88526;-73
2022/04/05 03:41:47;;;;;;;1.57;1.47;;;18.50;47.00;;;;;;5039664;28;90737;-74
2022/04/05 03:44:17;;;;;;;1.80;1.50;;;18.50;46.90;;;;;;5039872;28;93140;-74
2022/04/05 03:46:45;;;;;;;3.80;1.93;;;18.50;46.90;;;;;;5039493;27;88182;-73
2022/04/05 03:49:13;;;;;;;2.07;1.53;;;18.50;46.90;;;;;;5041167;28;88468;-74
2022/04/05 03:51:42;;;;;;;3.30;1.97;;;18.50;46.90;;;;;;5040787;28;91398;-74
2022/04/05 03:54:10;;;;;;;1.90;1.50;;;18.50;46.90;;;;;;5040097;27;89455;-73
2022/04/05 03:56:38;;;;;;;3.90;1.77;;;18.50;46.80;;;;;;5039177;28;88986;-74
2022/04/05 03:59:11;;;;;;;3.33;1.80;;;18.50;46.80;;;;;;5040144;27;88609;-74
2022/04/05 04:01:41;;;;;;;1.63;1.50;;;18.60;46.90;;;;;;5040437;27;92073;-74
2022/04/05 04:04:09;;;;;;;3.93;1.53;;;18.50;46.80;;;;;;5040538;28;91269;-74
2022/04/05 04:06:47;;;;;;;3.03;1.83;;;18.50;46.80;;;;;;5039330;28;88942;-70
2022/04/05 04:09:15;;;;;;;2.20;1.73;;;18.50;46.80;;;;;;5039887;27;88629;-74
2022/04/05 04:11:44;;;;;;;2.77;2.07;;;18.50;46.80;;;;;;5039521;28;93607;-74
2022/04/05 04:14:12;;;;;;;2.63;1.63;;;18.50;46.80;;;;;;5038923;28;89854;-74
2022/04/05 04:16:42;;;;;;;2.33;1.53;;;18.50;46.80;;;;;;5038908;28;90228;-74
2022/04/05 04:19:10;;;;;;;3.03;1.77;;;18.50;46.80;;;;;;5040414;28;88578;-74
2022/04/05 04:21:38;;;;;;;3.33;1.93;;;18.50;46.80;;;;;;5038559;27;89522;-74
2022/04/05 04:24:07;;;;;;;3.07;1.90;;;18.50;47.40;;;;;;5038412;28;90372;-74
2022/04/05 04:26:36;;;;;;;3.40;1.77;;;18.50;46.80;;;;;;5038906;28;89078;-74
2022/04/05 04:29:04;;;;;;;3.03;1.83;;;18.50;46.80;;;;;;5039379;28;88570;-74
2022/04/05 04:31:32;;;;;;;2.00;1.77;;;18.50;46.80;;;;;;5038055;27;93403;-74
2022/04/05 04:34:02;;;;;;;3.20;1.83;;;18.50;46.80;;;;;;5039142;27;90032;-74
2022/04/05 04:36:30;;;;;;;2.23;1.80;;;18.50;46.80;;;;;;5038259;27;89152;-74
2022/04/05 04:38:58;;;;;;;4.43;1.60;;;18.50;46.70;;;;;;5039196;27;88478;-74
2022/04/05 04:41:26;;;;;;;3.33;1.87;;;18.50;46.70;;;;;;5038346;28;93670;-74
2022/04/05 04:43:54;;;;;;;1.83;1.60;;;18.50;46.70;;;;;;5039825;28;89077;-74
2022/04/05 04:46:22;;;;;;;2.83;1.60;;;18.50;46.70;;;;;;5039080;27;89561;-74
2022/04/05 04:48:51;;;;;;;5.17;1.73;;;18.50;46.70;;;;;;5039623;27;88419;-74
2022/04/05 04:51:22;;;;;;;2.40;1.63;;;18.50;46.70;;;;;;5038850;27;90468;-74
2022/04/05 04:53:50;;;;;;;3.10;1.70;;;18.50;46.70;;;;;;5034566;28;88606;-74
2022/04/05 04:56:18;;;;;;;3.23;2.20;;;18.50;46.70;;;;;;5042735;28;88470;-74
2022/04/05 04:58:46;;;;;;;4.37;1.93;;;18.50;46.70;;;;;;5042757;28;88633;-74
2022/04/05 05:01:14;;;;;;;6.00;1.50;;;18.50;46.70;;;;;;5041507;28;91117;-74
2022/04/05 05:03:42;;;;;;;2.57;1.80;;;18.50;46.70;;;;;;5042486;27;92358;-74
2022/04/05 05:06:10;;;;;;;3.33;1.77;;;18.50;46.70;;;;;;5041266;28;88852;-74
2022/04/05 05:08:40;;;;;;;2.93;2.17;;;18.50;46.60;;;;;;5042516;28;88747;-74
2022/04/05 05:11:08;;;;;;;3.80;1.70;;;18.50;46.60;;;;;;5040758;27;93794;-74
2022/04/05 05:13:36;;;;;;;2.80;2.00;;;18.50;46.60;;;;;;5033661;27;88572;-74
2022/04/05 05:16:05;;;;;;;2.13;1.80;;;18.50;46.60;;;;;;5038538;27;89759;-71
2022/04/05 05:18:33;;;;;;;4.07;2.33;;;18.50;46.60;;;;;;5040236;28;88404;-71
2022/04/05 05:21:01;;;;;;;2.13;1.70;;;18.30;46.90;;;;;;5039819;28;90036;-69
2022/04/05 05:23:29;;;;;;;2.83;2.00;;;18.50;46.80;;;;;;5039218;28;90077;-71
2022/04/05 05:25:59;;;;;;;5.13;3.27;;;18.60;47.30;;;;;;5042431;28;88376;-72
2022/04/05 05:28:27;;;;;;;3.80;2.40;;;18.60;46.70;;;;;;5042647;28;89864;-72
2022/04/05 05:30:55;;;;;;;4.03;2.30;;;18.60;46.70;;;;;;5040999;28;90702;-73
2022/04/05 05:33:23;;;;;;;3.67;2.20;;;18.60;46.90;;;;;;5040935;27;90362;-71
2022/04/05 05:35:52;;;;;;;3.50;2.37;;;18.60;46.90;;;;;;5041471;27;88498;-71
2022/04/05 05:38:20;;;;;;;3.97;2.37;;;18.60;47.00;;;;;;5041848;27;88471;-70
2022/04/05 05:40:48;;;;;;;3.50;2.10;;;18.60;47.10;;;;;;5040974;28;91618;-66
2022/04/05 05:43:19;;;;;;;2.37;1.90;;;18.70;47.20;;;;;;5040727;27;88670;-66
2022/04/05 05:45:48;;;;;;;5.23;2.07;;;18.60;47.20;;;;;;5039176;27;90012;-67
2022/04/05 05:48:16;;;;;;;8.00;2.13;;;18.70;47.40;;;;;;5040742;27;88427;-66
2022/04/05 05:50:44;;;;;;;2.90;1.50;;;18.70;47.40;;;;;;5040269;27;89530;-66
2022/04/05 05:53:12;;;;;;;6.90;1.83;;;18.70;47.50;;;;;;5037395;28;92214;-66
2022/04/05 05:55:41;;;;;;;4.63;2.03;;;18.70;47.60;;;;;;5041298;27;89431;-65
2022/04/05 05:58:09;;;;;;;7.47;2.30;;;18.70;47.70;;;;;;5040664;28;88542;-66
2022/04/05 06:00:38;;;;;;;1.87;1.60;;;18.70;47.70;;;;;;5040773;27;90107;-66
2022/04/05 06:03:06;;;;;;;2.90;1.70;;;18.70;47.70;;;;;;5027346;28;90124;-66
2022/04/05 06:05:34;;;;;;;4.97;2.20;;;18.70;47.70;;;;;;5040160;28;90036;-66
2022/04/05 06:08:05;;;;;;;2.27;1.90;;;18.70;47.80;;;;;;5037346;28;88391;-66
2022/04/05 06:10:33;;;;;;;3.53;2.10;;;18.70;47.80;;;;;;5031504;28;90477;-66
2022/04/05 06:13:01;;;;;;;4.30;1.90;;;18.80;48.00;;;;;;5041176;27;90235;-66
2022/04/05 06:15:29;;;;;;;2.27;1.77;;;18.80;48.00;;;;;;5040919;27;88787;-66
2022/04/05 06:17:59;;;;;;;3.93;1.83;;;18.80;48.00;;;;;;5040626;28;88995;-66
2022/04/05 06:20:27;;;;;;;2.30;1.70;;;18.80;48.10;;;;;;5046762;27;90573;-66
2022/04/05 06:22:56;;;;;;;3.03;1.80;;;18.80;48.10;;;;;;5048746;27;90138;-66
2022/04/05 06:25:27;;;;;;;3.47;1.83;;;18.90;48.20;;;;;;5058367;27;89492;-66
2022/04/05 06:27:55;;;;;;;2.47;1.50;;;19.00;48.20;;;;;;5041003;27;90117;-66
2022/04/05 06:30:23;;;;;;;6.37;1.93;;;19.00;48.10;;;;;;5037358;27;90616;-66
2022/04/05 06:32:51;;;;;;;2.40;1.50;;;19.20;48.20;;;;;;5050845;27;93189;-66
2022/04/05 06:35:21;;;;;;;3.50;2.00;;;19.30;48.10;;;;;;5058041;27;89571;-66
2022/04/05 06:37:49;;;;;;;2.10;1.30;;;19.60;48.20;;;;;;5051157;27;88604;-66
2022/04/05 06:40:17;;;;;;;4.33;2.00;;;19.80;48.10;;;;;;5039929;27;88504;-66
2022/04/05 06:42:45;;;;;;;4.43;1.53;;;20.00;48.00;;;;;;5040211;27;88912;-66
2022/04/05 06:45:14;;;;;;;4.13;1.70;;;20.10;47.90;;;;;;5044354;27;88446;-65
2022/04/05 06:47:42;;;;;;;4.00;2.00;;;20.30;47.90;;;;;;5048241;27;89424;-67
2022/04/05 06:50:11;;;;;;;4.33;1.87;;;20.40;47.80;;;;;;5053501;27;89888;-67
2022/04/05 06:52:41;;;;;;;3.23;1.83;;;20.60;47.80;;;;;;5047796;27;89554;-66
2022/04/05 06:55:10;;;;;;;7.93;1.97;;;20.80;47.80;;;;;;5046819;27;88705;-67
2022/04/05 06:57:38;;;;;;;7.10;1.40;;;21.00;47.70;;;;;;5057462;27;88349;-67
2022/04/05 07:00:08;;;;;;;6.03;1.97;;;21.20;47.70;;;;;;5043122;27;90580;-68
2022/04/05 07:02:36;;;;;;;2.50;1.20;;;21.40;47.70;;;;;;5053159;27;89735;-65
2022/04/05 07:05:05;;;;;;;2.73;1.60;;;21.60;47.60;;;;;;5050461;27;88608;-68
2022/04/05 07:07:33;;;;;;;4.87;1.23;;;21.80;47.50;;;;;;5041028;27;88478;-67
2022/04/05 07:10:03;;;;;;;3.97;1.47;;;;;;;;;;5040162;27;91782;-67
2022/04/05 07:12:32;;;;;;;1.90;1.57;;;22.10;46.80;;;;;;5055095;27;90624;-68
2022/04/05 07:15:00;;;;;;;2.43;1.00;;;22.30;47.40;;;;;;5051885;27;88532;-67
2022/04/05 07:17:30;;;;;;;1.70;1.40;;;22.60;46.70;;;;;;5039992;28;88515;-68
2022/04/05 07:20:18;;;;;;;3.17;1.60;;;22.50;47.20;;;;;;5045915;27;92610;-68
2022/04/05 07:22:48;;;;;;;2.43;1.47;;;22.70;47.10;;;;;;5057995;27;92996;-68
2022/04/05 07:25:19;;;;;;;3.43;1.30;;;22.80;47.10;;;;;;5037747;27;88766;-68
2022/04/05 07:27:47;;;;;;;2.77;1.40;;;22.80;47.00;;;;;;5037975;27;89203;-68
2022/04/05 07:30:16;;;;;;;2.17;1.23;;;22.80;46.90;;;;;;5041579;27;91184;-69
2022/04/05 07:32:47;;;;;;;1.93;1.07;;;22.80;46.90;;;;;;5059965;27;92338;-68
2022/04/05 07:35:18;;;;;;;4.47;1.57;;;22.80;46.90;;;;;;5041349;27;88780;-68
2022/04/05 07:37:47;;;;;;;1.80;1.10;;;22.80;46.90;;;;;;5048210;27;88543;-68
2022/04/05 07:40:15;;;;;;;2.23;1.40;;;22.80;46.90;;;;;;5052850;27;90524;-68
2022/04/05 07:42:45;;;;;;;2.30;1.10;;;22.90;46.90;;;;;;5042967;27;89381;-67
2022/04/05 07:45:14;;;;;;;1.93;1.03;;;23.00;46.90;;;;;;5046577;27;92602;-68
2022/04/05 07:47:42;;;;;;;1.27;1.03;;;23.10;46.90;;;;;;5058012;27;88469;-67
2022/04/05 07:50:10;;;;;;;0.90;0.90;;;23.30;46.90;;;;;;5050513;27;90690;-67
2022/04/05 07:52:38;;;;;;;6.00;1.30;;;23.50;46.90;;;;;;5042529;27;92211;-67
2022/04/05 07:55:08;;;;;;;1.53;1.00;;;23.60;46.70;;;;;;5040506;28;89312;-66
2022/04/05 07:57:40;;;;;;;1.80;1.00;;;23.80;46.70;;;;;;5039250;27;88716;-67
2022/04/05 08:00:11;;;;;;;10.90;1.30;;;24.00;46.70;;;;;;5039345;27;93487;-68
2022/04/05 08:02:39;;;;;;;1.63;0.90;;;24.10;46.60;;;;;;5050450;27;90066;-66
2022/04/05 08:05:14;;;;;;;1.80;1.10;;;24.30;46.60;;;;;;5039105;27;88822;-66
2022/04/05 08:07:43;;;;;;;1.60;0.80;;;24.40;46.60;;;;;;5027849;27;89436;-66
2022/04/05 08:10:11;;;;;;;0.90;0.80;;;24.40;46.60;;;;;;5038815;28;93493;-66
2022/04/05 08:12:39;;;;;;;2.07;1.00;;;24.40;46.70;;;;;;5040326;27;90046;-66
2022/04/05 08:15:10;;;;;;;2.00;1.17;;;24.30;46.70;;;;;;5050895;27;89002;-66
2022/04/05 08:17:38;;;;;;;3.03;1.10;;;24.20;46.80;;;;;;5039145;28;88450;-66
2022/04/05 08:20:08;;;;;;;1.80;1.20;;;24.10;47.00;;;;;;5038662;28;90891;-66
2022/04/05 08:22:36;;;;;;;2.40;1.30;;;24.00;47.00;;;;;;5036518;27;90128;-66
2022/04/05 08:25:05;;;;;;;2.33;0.90;;;23.80;47.10;;;;;;5038369;28;89310;-67
2022/04/05 08:27:34;;;;;;;1.33;0.70;;;23.70;47.20;;;;;;5040398;27;88451;-66
2022/04/05 08:30:02;;;;;;;0.73;0.73;;;23.60;47.30;;;;;;5033493;28;90623;-66
2022/04/05 08:32:31;;;;;;;1.43;0.90;;;23.50;47.30;;;;;;5038838;28;90190;-67
2022/04/05 08:35:00;;;;;;;1.27;1.03;;;23.40;47.30;;;;;;5043142;27;92458;-67
2022/04/05 08:37:28;;;;;;;2.17;0.63;;;23.30;47.30;;;;;;5043129;27;88669;-66
2022/04/05 08:39:56;;;;;;;1.83;1.23;;;23.30;47.40;;;;;;5042652;28;91340;-66
2022/04/05 08:42:24;;;;;;;1.83;0.90;;;23.10;47.30;;;;;;5040405;28;88404;-66
2022/04/05 08:44:53;;;;;;;2.40;1.17;;;23.10;47.40;;;;;;5040399;27;88258;-66
2022/04/05 08:47:23;;;;;;;2.40;1.10;;;23.00;47.40;;;;;;5043107;28;88534;-67
2022/04/05 08:49:52;;;;;;;1.40;0.80;;;22.90;47.40;;;;;;5040346;28;90747;-67
2022/04/05 08:52:20;;;;;;;3.07;0.70;;;22.80;47.40;;;;;;5041416;28;90030;-66
2022/04/05 08:54:48;;;;;;;1.17;0.77;;;22.70;47.40;;;;;;5041823;28;88416;-66
2022/04/05 08:57:16;;;;;;;0.87;0.70;;;22.70;47.40;;;;;;5041226;27;89217;-67
2022/04/05 08:59:44;;;;;;;1.50;0.77;;;22.60;47.40;;;;;;5021346;28;92063;-67
2022/04/05 09:02:14;;;;;;;0.93;0.50;;;22.60;47.50;;;;;;5021682;28;89671;-66
2022/04/05 09:04:42;;;;;;;1.20;0.90;;;22.50;47.40;;;;;;5023296;28;88961;-66
2022/04/05 09:07:21;;;;;;;2.00;0.90;;;22.50;47.50;;;;;;5022381;28;88607;-67
2022/04/05 09:10:11;;;;;;;1.50;0.80;;;22.50;47.60;;;;;;5022199;28;90793;-66
2022/04/05 09:12:40;;;;;;;1.53;0.83;;;22.60;47.60;;;;;;5021855;28;90127;-66
2022/04/05 09:15:10;;;;;;;1.37;0.80;;;22.70;47.50;;;;;;5021998;28;88841;-66
2022/04/05 09:17:42;;;;;;;1.60;0.63;;;22.80;47.50;;;;;;5022054;28;88346;-66
2022/04/05 09:20:11;;;;;;;2.83;0.70;;;23.00;47.40;;;;;;5021810;28;88310;-66
2022/04/05 09:22:41;;;;;;;0.80;0.70;;;23.10;47.20;;;;;;5020928;28;92913;-66
2022/04/05 09:25:10;;;;;;;1.10;1.00;;;23.30;47.10;;;;;;5021332;28;89809;-66
2022/04/05 09:27:48;;;;;;;1.30;0.77;;;23.40;47.00;;;;;;5021508;28;88919;-66
2022/04/05 09:30:17;;;;;;;0.97;0.53;;;23.40;46.80;;;;;;5026697;28;93141;-66
2022/04/05 09:32:48;;;;;;;1.23;0.90;;;23.50;46.70;;;;;;5041619;28;92676;-66
2022/04/05 09:35:16;;;;;;;0.87;0.77;;;23.50;46.70;;;;;;5035506;27;88762;-66
2022/04/05 09:37:46;;;;;;;2.97;0.80;;;23.50;46.60;;;;;;5033969;28;88419;-66
2022/04/05 09:40:22;;;;;;;0.50;0.50;;;23.50;46.60;;;;;;5035338;28;90697;-66
2022/04/05 09:43:08;;;;;;;1.90;0.80;;;23.40;46.50;;;;;;5040995;28;90060;-67
2022/04/05 09:45:50;;;;;;;1.07;0.60;;;23.40;46.50;;;;;;5041449;28;88848;-66
2022/04/05 09:48:19;;;;;;;1.47;0.70;;;23.30;46.40;;;;;;5033090;28;88582;-66
2022/04/05 09:50:58;;;;;;;2.47;0.60;;;23.30;46.40;;;;;;5035797;28;90562;-66
2022/04/05 09:53:27;;;;;;;4.23;1.20;;;23.20;46.40;;;;;;5041231;28;89306;-66
2022/04/05 09:56:02;;;;;;;1.47;0.60;;;23.20;46.40;;;;;;5041050;27;88962;-66
2022/04/05 09:58:30;;;;;;;0.70;0.50;;;23.10;46.30;;;;;;5041663;28;88476;-66
2022/04/05 10:01:06;;;;;;;1.07;0.60;;;23.10;46.30;;;;;;5040134;28;90616;-66
2022/04/05 10:03:35;;;;;;;4.40;0.70;;;23.10;46.30;;;;;;5040441;28;89808;-66
2022/04/05 10:06:03;;;;;;;0.80;0.63;;;23.00;46.20;;;;;;5027762;28;88351;-66
2022/04/05 10:08:36;;;;;;;1.70;0.53;;;23.00;46.20;;;;;;5020441;28;88605;-67
2022/04/05 10:11:04;;;;;;;1.07;0.70;;;22.90;46.20;;;;;;5020112;28;91035;-67
2022/04/05 10:13:32;;;;;;;0.83;0.60;;;22.90;46.20;;;;;;5020617;28;90165;-67
2022/04/05 10:16:01;;;;;;;0.87;0.60;;;22.90;46.20;;;;;;5020687;28;90186;-67
2022/04/05 10:18:34;;;;;;;0.87;0.50;;;22.80;46.20;;;;;;5020616;28;88469;-67
2022/04/05 10:21:03;;;;;;;1.83;0.73;;;22.80;46.20;;;;;;5030028;28;90781;-67
2022/04/05 10:23:31;;;;;;;0.80;0.80;;;22.80;46.20;;;;;;5040632;28;88809;-69
2022/04/05 10:26:01;;;;;;;2.40;0.80;;;22.70;46.20;;;;;;5040677;28;89107;-67
2022/04/05 10:28:29;;;;;;;397.83;161.27;;;22.70;46.20;;;;;;5041555;28;89108;-66
2022/04/05 10:31:02;;;;;;;831.83;342.60;;;22.70;46.30;;;;;;5038787;27;89621;-66
2022/04/05 10:33:34;;;;;;;614.87;225.20;;;22.80;46.40;;;;;;5036885;28;90349;-67
2022/04/05 10:36:03;;;;;;;537.53;192.07;;;22.80;46.50;;;;;;5028338;28;91197;-66
2022/04/05 10:38:30;;;;;;;505.47;177.80;;;22.90;46.60;;;;;;5038934;28;88447;-67
2022/04/05 10:41:17;;;;;;;473.67;159.67;;;22.90;46.70;;;;;;5038278;27;89593;-66
2022/04/05 10:43:46;;;;;;;456.73;148.40;;;22.90;46.80;;;;;;5039232;28;89506;-66
2022/04/05 10:46:14;;;;;;;400.90;131.93;;;22.90;46.80;;;;;;5039232;27;88426;-66
2022/04/05 10:48:55;;;;;;;380.83;124.33;;;22.90;46.90;;;;;;5039356;28;88421;-66
2022/04/05 10:51:32;;;;;;;321.70;105.87;;;22.90;47.00;;;;;;5036931;27;90587;-68
2022/04/05 10:54:20;;;;;;;314.23;99.60;;;22.90;47.00;;;;;;5038421;28;90078;-67
2022/04/05 10:57:30;;;;;;;264.97;91.77;;;22.90;47.20;;;;;;5040112;27;88922;-67
2022/04/05 10:59:59;;;;;;;257.93;81.20;;;23.00;47.40;;;;;;4977658;28;88652;-67
2022/04/05 11:02:35;;;;;;;225.00;76.97;;;23.00;47.40;;;;;;5031282;27;90551;-72
2022/04/05 11:05:20;;;;;;;200.87;64.60;;;23.00;47.50;;;;;;5038607;28;92535;-69
2022/04/05 11:08:01;;;;;;;147.97;49.17;;;23.00;47.60;;;;;;5034942;27;92519;-71
2022/04/05 11:10:29;;;;;;;142.67;49.17;;;22.90;47.50;;;;;;5039433;28;88601;-70
2022/04/05 11:13:04;;;;;;;129.93;46.17;;;22.80;47.50;;;;;;5039060;28;89276;-70
2022/04/05 11:15:39;;;;;;;111.47;40.50;;;22.80;47.60;;;;;;5039351;27;91396;-70
2022/04/05 11:18:08;;;;;;;108.37;37.17;;;22.80;47.60;;;;;;5022321;27;88390;-71
2022/04/05 11:20:38;;;;;;;100.80;38.83;;;22.80;47.60;;;;;;5038320;28;88625;-70
2022/04/05 11:23:09;;;;;;;82.43;30.60;;;22.70;47.50;;;;;;5039001;27;89970;-69
2022/04/05 11:25:37;;;;;;;87.50;31.00;;;22.70;47.50;;;;;;5038792;28;90098;-70
2022/04/05 11:28:14;;;;;;;74.77;27.50;;;22.70;47.50;;;;;;5039305;28;88925;-70
2022/04/05 11:30:51;;;;;;;62.53;24.17;;;22.70;47.50;;;;;;5037646;28;88498;-70
2022/04/05 11:33:45;;;;;;;59.50;22.93;;;22.70;47.50;;;;;;5039245;28;90655;-69
2022/04/05 11:36:14;;;;;;;57.23;21.80;;;22.60;47.40;;;;;;5039306;27;91955;-69
2022/04/05 11:38:44;;;;;;;55.33;21.10;;;22.60;47.40;;;;;;5039218;28;88349;-69
2022/04/05 11:41:12;;;;;;;53.53;21.13;;;22.60;47.40;;;;;;5038731;28;88413;-69
2022/04/05 11:43:43;;;;;;;55.93;18.83;;;22.60;47.50;;;;;;5038871;28;90161;-70
2022/04/05 11:46:13;;;;;;;59.07;18.67;;;22.50;47.40;;;;;;5038549;27;89152;-70
2022/04/05 11:48:49;;;;;;;33.07;15.93;;;22.50;47.30;;;;;;5037640;27;88292;-70
2022/04/05 11:51:18;;;;;;;39.37;14.87;;;22.40;47.30;;;;;;5038413;28;88608;-70
2022/04/05 11:53:46;;;;;;;41.47;14.93;;;22.40;47.30;;;;;;5038787;27;89503;-70
2022/04/05 11:56:20;;;;;;;38.93;13.13;;;22.40;47.90;;;;;;5037342;28;92716;-70
2022/04/05 11:58:50;;;;;;;29.30;11.70;;;22.30;47.20;;;;;;5038042;28;90095;-69
2022/04/05 12:01:24;;;;;;;30.47;11.10;;;22.30;47.30;;;;;;5037901;28;88557;-70
2022/04/05 12:03:54;;;;;;;25.27;9.47;;;22.30;47.30;;;;;;5036571;28;89795;-70
2022/04/05 12:06:23;;;;;;;19.13;8.70;;;22.20;47.10;;;;;;5038940;27;89745;-70
2022/04/05 12:08:53;;;;;;;14.60;7.37;;;22.20;47.20;;;;;;5039096;28;89188;-70
2022/04/05 12:11:22;;;;;;;19.60;7.77;;;22.10;47.10;;;;;;5038606;28;88467;-69
2022/04/05 12:13:55;;;;;;;17.43;7.33;;;22.10;47.20;;;;;;5038708;28;90629;-69
2022/04/05 12:16:24;;;;;;;11.33;5.40;;;22.00;47.10;;;;;;5039322;28;89663;-69
2022/04/05 12:18:52;;;;;;;14.43;4.73;;;21.90;47.10;;;;;;5021856;28;89260;-69
2022/04/05 12:21:21;;;;;;;13.43;5.17;;;21.90;47.10;;;;;;5017718;28;88614;-69
2022/04/05 12:23:50;;;;;;;7.50;4.53;;;21.90;47.10;;;;;;5029442;28;90786;-69
2022/04/05 12:26:20;;;;;;;13.50;4.13;;;21.90;47.10;;;;;;5038956;28;90062;-69
2022/04/05 12:28:49;;;;;;;6.83;3.70;;;21.80;47.00;;;;;;5036971;27;88423;-69
2022/04/05 12:31:19;;;;;;;12.13;4.00;;;21.80;47.00;;;;;;5038814;28;88211;-69
2022/04/05 12:33:59;;;;;;;10.60;3.20;;;21.80;47.10;;;;;;5038494;28;90611;-69
2022/04/05 12:36:32;;;;;;;8.37;3.30;;;21.70;47.00;;;;;;5038439;28;90039;-69
2022/04/05 12:39:00;;;;;;;7.57;2.90;;;21.70;47.00;;;;;;5039104;28;91756;-69
2022/04/05 12:41:29;;;;;;;7.03;2.50;;;21.70;47.00;;;;;;5037554;27;88687;-69
2022/04/05 12:44:07;;;;;;;4.77;2.63;;;21.60;46.90;;;;;;5018124;28;90609;-69
2022/04/05 12:46:44;;;;;;;10.07;2.83;;;21.60;47.60;;;;;;5018043;28;89195;-69
2022/04/05 12:49:20;;;;;;;4.87;2.50;;;21.60;47.00;;;;;;5017360;27;90131;-69
2022/04/05 12:52:09;;;;;;;7.73;2.33;;;21.60;46.90;;;;;;5017781;28;88446;-69
2022/04/05 12:54:39;;;;;;;6.80;3.03;;;21.50;46.90;;;;;;5018188;28;90603;-69
2022/04/05 12:57:21;;;;;;;5.60;2.07;;;21.60;47.00;;;;;;5018412;28;90113;-69